createdAt,value
2018-06-27T19:20:23.749Z,50.62
2018-06-27T19:21:23.713Z,50.62
2018-06-27T19:28:03.840Z,39.38
2018-06-27T19:29:03.832Z,39.38
2018-06-27T19:30:03.804Z,39.38
2018-06-27T19:31:03.784Z,39.38
2018-06-27T19:32:03.772Z,33.75
2018-06-27T19:33:03.766Z,28.12
2018-06-27T19:34:03.739Z,33.75
2018-06-27T19:35:03.719Z,33.75
2018-06-27T19:36:03.701Z,28.12
2018-06-27T19:37:03.681Z,28.12
2018-06-27T19:38:03.678Z,28.12
2018-06-27T19:39:03.648Z,22.50
2018-06-27T19:40:03.624Z,22.50
2018-06-27T19:41:03.754Z,22.50
2018-06-27T19:42:03.584Z,22.50
2018-06-27T19:43:03.570Z,16.88
2018-06-27T19:44:03.632Z,16.88
2018-06-27T19:45:03.623Z,11.25
2018-06-27T19:47:03.485Z,16.88
2018-06-27T19:48:03.421Z,16.88
2018-06-27T19:49:03.407Z,11.25
2018-06-27T19:50:03.397Z,11.25
2018-06-27T19:51:03.388Z,11.25
2018-06-27T19:52:03.386Z,11.25
2018-06-27T19:53:03.367Z,11.25
2018-06-27T19:54:03.365Z,11.25
2018-06-27T19:55:03.342Z,5.62
2018-06-27T19:56:03.333Z,5.62
2018-06-27T19:57:03.334Z,5.62
2018-06-27T19:58:03.309Z,5.62
2018-06-27T19:59:03.302Z,5.62
2018-06-27T20:00:03.307Z,5.62
2018-06-27T20:01:03.278Z,5.62
2018-06-27T20:02:03.329Z,5.62
2018-06-27T20:03:03.259Z,5.62
2018-06-27T20:04:03.246Z,0.00
2018-06-27T20:05:03.234Z,0.00
2018-06-27T20:06:03.239Z,0.00
2018-06-27T20:07:03.458Z,0.00
2018-06-27T20:08:03.207Z,0.00
2018-06-27T20:09:03.195Z,0.00
2018-06-27T20:10:03.199Z,0.00
2018-06-27T20:11:03.170Z,0.00
2018-06-27T20:12:03.162Z,0.00
2018-06-27T20:13:03.276Z,0.00
2018-06-27T20:14:03.162Z,0.00
2018-06-27T20:15:03.209Z,0.00
2018-06-27T20:16:03.258Z,0.00
2018-06-27T20:17:03.111Z,0.00
2018-06-27T20:18:03.096Z,0.00
2018-06-27T20:19:03.153Z,0.00
2018-06-27T20:20:03.075Z,0.00
2018-06-27T20:21:03.064Z,0.00
2018-06-27T20:22:03.147Z,0.00
2018-06-27T20:23:03.041Z,0.00
2018-06-27T20:24:03.031Z,0.00
2018-06-27T20:25:03.016Z,0.00
2018-06-27T20:26:03.011Z,0.00
2018-06-27T20:27:02.997Z,0.00
2018-06-27T20:28:03.000Z,0.00
2018-06-27T20:29:02.977Z,0.00
2018-06-27T20:30:02.964Z,0.00
2018-06-27T20:31:02.971Z,0.00
2018-06-27T20:32:02.941Z,0.00
2018-06-27T20:33:02.942Z,0.00
2018-06-27T20:34:02.918Z,0.00
2018-06-27T20:35:02.909Z,0.00
2018-06-27T20:36:02.895Z,0.00
2018-06-27T20:37:02.885Z,0.00
2018-06-27T20:38:02.897Z,0.00
2018-06-27T20:39:02.865Z,0.00
2018-06-27T20:40:02.855Z,0.00
2018-06-27T20:41:02.849Z,0.00
2018-06-27T20:42:02.834Z,0.00
2018-06-27T20:43:02.819Z,0.00
2018-06-27T20:44:02.819Z,0.00
2018-06-27T20:45:02.803Z,0.00
2018-06-27T20:46:02.787Z,0.00
2018-06-27T20:47:02.775Z,0.00
2018-06-27T20:48:02.765Z,0.00
2018-06-27T20:49:02.766Z,0.00
2018-06-27T20:50:02.742Z,0.00
2018-06-27T20:51:02.735Z,0.00
2018-06-27T20:52:02.723Z,0.00
2018-06-27T20:53:02.715Z,0.00
2018-06-27T20:54:02.721Z,0.00
2018-06-27T20:55:02.687Z,0.00
2018-06-27T20:56:02.679Z,0.00
2018-06-27T20:57:02.665Z,0.00
2018-06-27T20:58:02.669Z,0.00
2018-06-27T20:59:02.647Z,0.00
2018-06-27T21:00:02.644Z,0.00
2018-06-27T21:01:02.629Z,0.00
2018-06-27T21:02:02.613Z,0.00
2018-06-27T21:03:02.618Z,0.00
2018-06-27T21:04:02.589Z,0.00
2018-06-27T21:05:02.613Z,0.00
2018-06-27T21:06:02.569Z,0.00
2018-06-27T21:07:02.558Z,0.00
2018-06-27T21:08:02.569Z,0.00
2018-06-27T21:09:02.535Z,0.00
2018-06-27T21:10:02.522Z,0.00
2018-06-27T21:11:02.522Z,0.00
2018-06-27T21:12:02.518Z,0.00
2018-06-27T21:13:02.489Z,0.00
2018-06-27T21:14:02.485Z,0.00
2018-06-27T21:15:02.469Z,0.00
2018-06-27T21:16:02.455Z,0.00
2018-06-27T21:17:02.461Z,0.00
2018-06-27T21:18:02.436Z,0.00
2018-06-27T21:19:02.422Z,0.00
2018-06-27T21:20:02.414Z,0.00
2018-06-27T21:21:02.401Z,0.00
2018-06-27T21:22:02.392Z,0.00
2018-06-27T21:23:02.391Z,0.00
2018-06-27T21:24:02.369Z,0.00
2018-06-27T21:25:02.357Z,0.00
2018-06-27T21:26:02.373Z,0.00
2018-06-27T21:27:02.334Z,0.00
2018-06-27T21:28:02.340Z,0.00
2018-06-27T21:29:02.324Z,0.00
2018-06-27T21:30:02.304Z,0.00
2018-06-27T21:31:02.290Z,0.00
2018-06-27T21:32:02.283Z,0.00
2018-06-27T21:33:02.272Z,0.00
2018-06-27T21:34:02.296Z,0.00
2018-06-27T21:35:02.251Z,0.00
2018-06-27T21:36:02.238Z,0.00
2018-06-27T21:37:02.225Z,0.00
2018-06-27T21:38:02.213Z,0.00
2018-06-27T21:39:02.205Z,0.00
2018-06-27T21:40:02.203Z,0.00
2018-06-27T21:41:02.181Z,0.00
2018-06-27T21:42:02.172Z,0.00
2018-06-27T21:43:02.160Z,0.00
2018-06-27T21:44:02.147Z,0.00
2018-06-27T21:45:02.163Z,0.00
2018-06-27T21:46:02.125Z,0.00
2018-06-27T21:47:02.117Z,0.00
2018-06-27T21:48:02.102Z,0.00
2018-06-27T21:49:02.094Z,0.00
2018-06-27T21:50:02.083Z,0.00
2018-06-27T21:51:02.090Z,0.00
2018-06-27T21:52:02.082Z,0.00
2018-06-27T21:53:02.048Z,0.00
2018-06-27T21:54:02.039Z,0.00
2018-06-27T21:55:02.030Z,0.00
2018-06-27T21:56:02.018Z,0.00
2018-06-27T21:57:02.007Z,0.00
2018-06-27T21:58:02.007Z,0.00
2018-06-27T21:59:01.984Z,0.00
2018-06-27T22:00:01.973Z,0.00
2018-06-27T22:01:02.003Z,0.00
2018-06-27T22:02:01.952Z,0.00
2018-06-27T22:03:01.941Z,0.00
2018-06-27T22:04:01.935Z,0.00
2018-06-27T22:05:01.917Z,0.00
2018-06-27T22:06:01.907Z,0.00
2018-06-27T22:07:01.906Z,0.00
2018-06-27T22:08:01.883Z,0.00
2018-06-27T22:09:01.912Z,0.00
2018-06-27T22:10:01.864Z,0.00
2018-06-27T22:11:02.700Z,0.00
2018-06-27T22:12:01.852Z,0.00
2018-06-27T22:13:01.828Z,0.00
2018-06-27T22:14:01.820Z,0.00
2018-06-27T22:15:01.810Z,0.00
2018-06-27T22:16:01.797Z,0.00
2018-06-27T22:17:01.797Z,0.00
2018-06-27T22:18:01.788Z,0.00
2018-06-27T22:19:01.782Z,0.00
2018-06-27T22:20:01.751Z,0.00
2018-06-27T22:21:01.740Z,0.00
2018-06-27T22:22:01.735Z,0.00
2018-06-27T22:23:01.729Z,0.00
2018-06-27T22:24:01.708Z,0.00
2018-06-27T22:25:01.707Z,0.00
2018-06-27T22:26:01.687Z,0.00
2018-06-27T22:27:01.675Z,0.00
2018-06-27T22:28:01.663Z,0.00
2018-06-27T22:29:01.691Z,0.00
2018-06-27T22:30:01.641Z,0.00
2018-06-27T22:31:01.629Z,0.00
2018-06-27T22:32:01.621Z,0.00
2018-06-27T22:33:01.610Z,0.00
2018-06-27T22:34:01.598Z,0.00
2018-06-27T22:35:01.620Z,0.00
2018-06-27T22:36:01.575Z,0.00
2018-06-27T22:37:01.584Z,0.00
2018-06-27T22:38:01.559Z,0.00
2018-06-27T22:39:01.541Z,0.00
2018-06-27T22:40:01.558Z,0.00
2018-06-27T22:41:01.521Z,0.00
2018-06-27T22:42:01.511Z,0.00
2018-06-27T22:43:01.940Z,0.00
2018-06-27T22:44:01.487Z,0.00
2018-06-27T22:45:01.475Z,0.00
2018-06-27T22:46:01.475Z,0.00
2018-06-27T22:47:01.472Z,0.00
2018-06-27T22:48:01.445Z,0.00
2018-06-27T22:49:01.437Z,0.00
2018-06-27T22:50:01.431Z,0.00
2018-06-27T22:51:01.412Z,0.00
2018-06-27T22:52:01.402Z,0.00
2018-06-27T22:53:01.398Z,0.00
2018-06-27T22:54:01.378Z,0.00
2018-06-27T22:55:01.372Z,0.00
2018-06-27T22:56:01.357Z,0.00
2018-06-27T22:57:01.346Z,0.00
2018-06-27T22:58:01.342Z,0.00
2018-06-27T22:59:01.321Z,0.00
2018-06-27T23:00:01.309Z,0.00
2018-06-27T23:01:01.301Z,0.00
2018-06-27T23:02:01.291Z,0.00
2018-06-27T23:03:01.295Z,0.00
2018-06-27T23:04:01.310Z,0.00
2018-06-27T23:05:01.255Z,0.00
2018-06-27T23:06:01.244Z,0.00
2018-06-27T23:07:01.234Z,0.00
2018-06-27T23:08:01.244Z,0.00
2018-06-27T23:09:01.214Z,0.00
2018-06-27T23:10:01.203Z,0.00
2018-06-27T23:11:01.192Z,0.00
2018-06-27T23:12:01.179Z,0.00
2018-06-27T23:13:01.172Z,0.00
2018-06-27T23:14:01.195Z,0.00
2018-06-27T23:15:01.150Z,0.00
2018-06-27T23:16:01.135Z,0.00
2018-06-27T23:17:01.123Z,0.00
2018-06-27T23:18:01.114Z,0.00
2018-06-27T23:19:01.101Z,0.00
2018-06-27T23:20:01.108Z,0.00
2018-06-27T23:21:01.080Z,0.00
2018-06-27T23:22:01.068Z,0.00
2018-06-27T23:23:01.057Z,0.00
2018-06-27T23:24:01.047Z,0.00
2018-06-27T23:25:01.043Z,0.00
2018-06-27T23:26:01.039Z,0.00
2018-06-27T23:27:01.015Z,0.00
2018-06-27T23:28:01.007Z,0.00
2018-06-27T23:29:00.994Z,0.00
2018-06-27T23:30:00.981Z,0.00
2018-06-27T23:31:00.990Z,0.00
2018-06-27T23:32:00.959Z,0.00
2018-06-27T23:33:00.955Z,0.00
2018-06-27T23:34:00.940Z,0.00
2018-06-27T23:35:00.926Z,0.00
2018-06-27T23:36:00.914Z,0.00
2018-06-27T23:37:00.931Z,0.00
2018-06-27T23:38:00.896Z,0.00
2018-06-27T23:39:00.881Z,0.00
2018-06-27T23:40:00.881Z,0.00
2018-06-27T23:41:00.863Z,0.00
2018-06-27T23:42:00.856Z,0.00
2018-06-27T23:43:00.839Z,0.00
2018-06-27T23:44:00.826Z,0.00
2018-06-27T23:45:00.828Z,0.00
2018-06-27T23:46:00.807Z,0.00
2018-06-27T23:47:00.796Z,0.00
2018-06-27T23:48:00.785Z,0.00
2018-06-27T23:49:00.792Z,0.00
2018-06-27T23:50:00.765Z,0.00
2018-06-27T23:51:00.754Z,0.00
2018-06-27T23:52:00.738Z,0.00
2018-06-27T23:53:00.727Z,0.00
2018-06-27T23:54:00.716Z,0.00
2018-06-27T23:55:00.720Z,0.00
2018-06-27T23:56:00.695Z,0.00
2018-06-27T23:57:00.683Z,0.00
2018-06-27T23:58:00.672Z,0.00
2018-06-27T23:59:00.673Z,0.00
